US1GBF-7 messages


fromtotime message
US1GBF-1 US1GBF-7 09/20 16:20:06z Reply No status text available.
US1GBF-7 US1GBF-1 09/20 16:19:57z Send another ?APRSS{10
UR3QOI-7 US1GBF-7 08/29 12:14:46z Reply Павел, приветствую! Пожалуйста-ответь мне.Хочу попытаться принять.{50
EMAIL-2 US1GBF-7 08/24 16:03:14z Reply Email sent to US1GBF@winlink.org{103
US1GBF-7 EMAIL-2 08/24 16:03:14z Send another US1GBF@winlink.org test msg via aprs{27
US1GBF-7 US1GHQ-7 08/14 17:17:20z Send another Spasibki.) {12
US1GHQ-7 US1GBF-7 08/14 17:15:22z Reply Moget tebya yvidit DIGI US1GHQ-2 =){1
US1GHQ-7 US1GBF-7 08/14 17:14:29z Reply Edachnogo pyti =){1
US1GBF-7 US1GHQ-7 08/14 16:54:13z Send another Da, ya edu v skadovsk :) {11
US1GHQ-7 US1GBF-7 08/14 16:52:01z Reply A ya tebya vigy =){1
US1GBF-7 UA9KDF-9 08/08 07:42:27z Send another Privet{1
WXBOT US1GBF-7 08/08 06:18:10z Reply UKOH 080600Z 04006MPS 010V080 CAVOK 28/17 Q1015 R03/CLRD// NOSIG{EZ
WXBOT US1GBF-7 08/08 06:02:09z Reply UKOH 080530Z 05006MPS 010V080 CAVOK 27/17 Q1015 R03/CLRD// NOSIG{EY
US1GBF-7 WXBOT 08/06 10:00:56z Send another UKOH{50
UR5YBM-14 US1GBF-7 08/06 10:00:14z Reply TE:32 PR:1017 HU:24 WS:5 WD:E SR:05:36:24 SS:20:14:23 LC:Kherson{19
US1GBF-7 UR5YBM-14 08/06 09:59:57z Send another Weather Kherson {20
UR5FSV-8 US1GBF-7 07/29 19:19:50z Reply RF test.pls ackn{46